Time;durP1;ratioP1;P1;durP2;ratioP2;P2;SDS_P1;SDS_P2;PMS_P1;PMS_P2;Temp;Humidity;BMP_temperature;BMP_pressure;BME280_temperature;BME280_humidity;BME280_pressure;Samples;Min_cycle;Max_cycle;Signal;HPM_P1;HPM_P2
2021/03/03 04:14:57;;;;;;;7.32;1.30;;;1.70;99.10;;;;;;5052769;28;20084;-68
2021/03/03 04:17:23;;;;;;;7.15;1.98;;;1.70;99.30;;;;;;5053145;28;20040;-67
2021/03/03 04:19:49;;;;;;;5.32;1.13;;;1.80;99.70;;;;;;5053360;28;20029;-67
2021/03/03 04:22:15;;;;;;;7.13;1.50;;;1.80;99.60;;;;;;5052146;28;20013;-69
2021/03/03 04:24:40;;;;;;;9.75;1.42;;;1.70;99.70;;;;;;5053068;28;20484;-68
2021/03/03 04:27:06;;;;;;;6.05;1.15;;;1.70;99.80;;;;;;5051868;28;20108;-68
2021/03/03 04:29:32;;;;;;;8.50;1.67;;;1.70;99.90;;;;;;5053059;28;20028;-68
2021/03/03 04:31:58;;;;;;;2.67;1.15;;;1.80;99.90;;;;;;5053376;28;20029;-69
2021/03/03 04:34:23;;;;;;;6.88;1.25;;;1.80;99.90;;;;;;5052914;28;20074;-68
2021/03/03 04:36:49;;;;;;;12.07;1.40;;;1.80;99.90;;;;;;5052794;28;20029;-67
2021/03/03 04:39:15;;;;;;;3.75;1.40;;;1.80;99.90;;;;;;5053057;28;20021;-69
2021/03/03 04:41:41;;;;;;;6.57;1.23;;;1.90;99.90;;;;;;5052550;28;20017;-69
2021/03/03 04:44:06;;;;;;;9.82;1.80;;;1.90;99.90;;;;;;5052937;28;20079;-68
2021/03/03 04:46:32;;;;;;;6.60;1.25;;;1.90;99.90;;;;;;5052456;28;20020;-68
2021/03/03 04:48:58;;;;;;;8.00;1.30;;;1.90;99.90;;;;;;5052864;28;20036;-67
2021/03/03 04:51:23;;;;;;;4.10;1.02;;;2.00;99.90;;;;;;5052524;28;20497;-68
2021/03/03 04:53:49;;;;;;;8.13;1.17;;;2.00;99.90;;;;;;5052653;28;20033;-68
2021/03/03 04:56:15;;;;;;;5.70;1.27;;;2.00;99.90;;;;;;5052850;28;20108;-67
2021/03/03 04:58:41;;;;;;;6.07;1.48;;;2.00;99.90;;;;;;5052687;28;20021;-70
2021/03/03 05:01:06;;;;;;;10.70;2.45;;;2.00;99.90;;;;;;5052860;28;20037;-70
2021/03/03 05:03:32;;;;;;;6.18;1.70;;;2.00;99.90;;;;;;5052254;28;20052;-67
2021/03/03 05:05:58;;;;;;;12.40;1.40;;;2.10;99.90;;;;;;5052599;28;20108;-67
2021/03/03 05:08:24;;;;;;;3.97;1.40;;;2.10;99.90;;;;;;5052381;28;20392;-68
2021/03/03 05:10:49;;;;;;;6.30;1.38;;;2.10;99.90;;;;;;5052320;28;20059;-68
2021/03/03 05:13:16;;;;;;;3.40;1.30;;;2.10;99.90;;;;;;5052544;28;20071;-69
2021/03/03 05:15:43;;;;;;;3.97;1.20;;;2.10;99.90;;;;;;5051947;28;20049;-69
2021/03/03 05:18:10;;;;;;;9.15;1.23;;;2.10;99.90;;;;;;5052161;28;20033;-68
2021/03/03 05:20:37;;;;;;;6.90;1.40;;;2.10;99.90;;;;;;5052342;28;20096;-69
2021/03/03 05:23:03;;;;;;;6.25;1.02;;;2.20;99.90;;;;;;5052098;28;20366;-68
2021/03/03 05:25:29;;;;;;;6.03;1.42;;;2.20;99.90;;;;;;5052152;28;20041;-70
2021/03/03 05:27:56;;;;;;;3.65;1.13;;;2.20;99.90;;;;;;5051934;28;20098;-68
2021/03/03 05:30:23;;;;;;;6.45;1.20;;;2.20;99.90;;;;;;5051889;28;20025;-67
2021/03/03 05:32:48;;;;;;;8.10;2.20;;;2.20;99.90;;;;;;5051706;28;20041;-69
2021/03/03 05:35:14;;;;;;;6.38;1.98;;;2.20;99.90;;;;;;5051969;28;20071;-69
2021/03/03 05:37:40;;;;;;;8.85;1.20;;;2.20;99.90;;;;;;5051651;28;20496;-70
2021/03/03 05:40:06;;;;;;;10.82;1.30;;;2.20;99.90;;;;;;5051815;28;20381;-73
2021/03/03 05:42:35;;;;;;;3.08;1.02;;;2.30;99.90;;;;;;5051539;28;20484;-72
2021/03/03 05:45:02;;;;;;;8.07;1.42;;;2.40;99.90;;;;;;5051498;28;20493;-72
2021/03/03 05:47:32;;;;;;;4.97;1.38;;;2.60;99.90;;;;;;5051465;28;20116;-71
2021/03/03 05:50:00;;;;;;;5.32;1.02;;;2.60;99.90;;;;;;5048896;28;20029;-69
2021/03/03 05:52:28;;;;;;;8.02;1.45;;;2.60;99.90;;;;;;5050098;28;20098;-72
2021/03/03 05:54:55;;;;;;;7.50;1.30;;;2.60;99.90;;;;;;5044502;28;20544;-72
2021/03/03 05:57:22;;;;;;;9.30;1.30;;;2.60;99.90;;;;;;5042627;28;20086;-75
2021/03/03 05:59:48;;;;;;;9.63;1.60;;;2.60;99.90;;;;;;5038311;28;20064;-73
2021/03/03 06:02:15;;;;;;;3.17;1.33;;;2.50;99.90;;;;;;5050761;28;20025;-73
2021/03/03 06:04:41;;;;;;;5.60;1.70;;;2.50;99.90;;;;;;5040003;28;20045;-70
2021/03/03 06:07:10;;;;;;;4.18;1.10;;;2.50;99.90;;;;;;5039550;28;20030;-67
2021/03/03 06:09:36;;;;;;;7.30;1.38;;;2.50;99.90;;;;;;5045036;28;20029;-75
2021/03/03 06:12:02;;;;;;;6.63;1.42;;;2.50;99.90;;;;;;5050014;28;20021;-75
2021/03/03 06:14:28;;;;;;;3.10;1.17;;;2.40;99.90;;;;;;5040174;28;20041;-76
2021/03/03 06:16:54;;;;;;;5.68;1.77;;;2.50;99.90;;;;;;5049327;28;20021;-76
2021/03/03 06:19:20;;;;;;;6.22;1.30;;;2.40;99.90;;;;;;5050952;28;20146;-76
2021/03/03 06:21:46;;;;;;;7.35;1.33;;;2.50;99.90;;;;;;5050913;28;20481;-75
2021/03/03 06:24:12;;;;;;;4.82;1.30;;;2.50;99.90;;;;;;5050216;28;20028;-71
2021/03/03 06:26:54;;;;;;;3.70;1.45;;;2.40;99.90;;;;;;5051345;28;20021;-67
2021/03/03 06:29:20;;;;;;;2.85;1.15;;;2.60;99.90;;;;;;5038230;28;20029;-71
2021/03/03 06:31:47;;;;;;;4.35;1.02;;;3.40;99.90;;;;;;5051031;28;20381;-71
2021/03/03 06:34:24;;;;;;;6.13;1.60;;;3.60;99.90;;;;;;5037449;28;20044;-71
2021/03/03 06:36:55;;;;;;;4.47;1.00;;;3.50;99.90;;;;;;5049210;28;20040;-71
2021/03/03 06:39:26;;;;;;;2.97;1.20;;;3.40;99.90;;;;;;5050912;28;20025;-71
2021/03/03 06:41:54;;;;;;;8.88;1.20;;;3.30;99.90;;;;;;5050752;28;20025;-71
2021/03/03 06:44:20;;;;;;;6.65;1.20;;;3.40;99.90;;;;;;5051019;28;20033;-71
2021/03/03 06:47:06;;;;;;;5.25;1.20;;;3.60;99.90;;;;;;5053214;28;20029;-71
2021/03/03 06:49:32;;;;;;;5.60;1.42;;;3.70;99.90;;;;;;5049164;28;20021;-68
2021/03/03 06:51:58;;;;;;;9.20;1.40;;;3.70;99.30;;;;;;5054813;28;20021;-68
2021/03/03 06:54:25;;;;;;;6.03;1.10;;;3.80;98.00;;;;;;5055008;28;20031;-68
2021/03/03 06:56:55;;;;;;;4.07;1.30;;;3.70;97.90;;;;;;5054651;28;20024;-68
2021/03/03 06:59:34;;;;;;;7.40;1.60;;;3.70;98.20;;;;;;5055092;28;20009;-68
2021/03/03 07:02:01;;;;;;;6.82;1.25;;;3.80;97.40;;;;;;5054646;28;20108;-67
2021/03/03 07:04:34;;;;;;;4.40;1.10;;;3.80;97.30;;;;;;5054722;28;20017;-68
2021/03/03 07:07:21;;;;;;;6.15;1.48;;;3.90;97.00;;;;;;5054818;28;20422;-68
2021/03/03 07:09:49;;;;;;;3.78;1.10;;;4.30;98.10;;;;;;5047410;28;20040;-68
2021/03/03 07:12:19;;;;;;;6.07;1.52;;;4.30;95.20;;;;;;5054634;28;20032;-67
2021/03/03 07:14:58;;;;;;;7.68;1.23;;;4.50;99.90;;;;;;5050988;28;20041;-67
2021/03/03 07:17:31;;;;;;;4.90;1.00;;;4.80;99.40;;;;;;5052160;28;20024;-67
2021/03/03 07:20:01;;;;;;;3.55;1.00;;;5.20;99.90;;;;;;5046486;28;20036;-67
2021/03/03 07:22:30;;;;;;;;;;;5.60;95.10;;;;;;5052170;28;20024;-69
2021/03/03 07:24:56;;;;;;;3.08;0.95;;;5.40;91.20;;;;;;5050541;28;19959;-67
2021/03/03 07:27:22;;;;;;;4.22;1.08;;;5.10;92.00;;;;;;5051461;28;20574;-66
2021/03/03 07:29:50;;;;;;;5.30;1.08;;;5.10;98.00;;;;;;5054173;28;20029;-66
2021/03/03 07:32:20;;;;;;;5.03;1.17;;;5.20;97.20;;;;;;5053448;28;20538;-66
2021/03/03 07:34:54;;;;;;;5.05;1.08;;;5.60;99.00;;;;;;5052986;28;20037;-67
2021/03/03 07:37:21;;;;;;;5.53;1.20;;;5.60;93.40;;;;;;5054444;28;20515;-66
2021/03/03 07:40:14;;;;;;;3.92;1.20;;;5.40;92.20;;;;;;5054330;28;20048;-67
2021/03/03 07:42:42;;;;;;;2.70;0.80;;;5.20;91.90;;;;;;5054266;28;20025;-67
2021/03/03 07:45:13;;;;;;;3.05;0.85;;;5.00;92.30;;;;;;5054283;28;20575;-69
2021/03/03 07:47:41;;;;;;;3.60;1.63;;;4.80;92.40;;;;;;5053082;28;20041;-67
2021/03/03 07:50:15;;;;;;;3.00;0.90;;;4.80;92.80;;;;;;5054374;28;20037;-67
2021/03/03 07:52:50;;;;;;;4.80;1.63;;;4.80;92.30;;;;;;5054183;28;20021;-67
2021/03/03 07:55:16;;;;;;;2.33;0.80;;;4.70;91.70;;;;;;5054393;28;20021;-67
2021/03/03 07:57:46;;;;;;;2.97;0.93;;;4.60;91.70;;;;;;5053633;28;20111;-70
2021/03/03 08:00:14;;;;;;;2.28;0.80;;;4.50;91.20;;;;;;5054499;28;20021;-73
2021/03/03 08:02:48;;;;;;;1.50;0.70;;;4.50;90.90;;;;;;5054043;28;20051;-67
2021/03/03 08:05:46;;;;;;;3.05;0.90;;;4.40;90.60;;;;;;5054294;28;20099;-67
2021/03/03 08:08:26;;;;;;;3.95;1.10;;;4.40;90.00;;;;;;5063211;28;20044;-67
2021/03/03 08:10:59;;;;;;;4.65;1.15;;;4.40;89.40;;;;;;5054104;28;20029;-67
2021/03/03 08:13:31;;;;;;;0.93;0.60;;;4.40;88.20;;;;;;5053843;28;20037;-66
2021/03/03 08:16:04;;;;;;;2.22;0.80;;;4.40;87.00;;;;;;5053094;28;20043;-66
2021/03/03 08:18:35;;;;;;;4.40;0.80;;;4.30;86.40;;;;;;5049900;28;20033;-69
2021/03/03 08:21:06;;;;;;;;;;;4.30;86.30;;;;;;5052409;28;20025;-69
2021/03/03 08:23:35;;;;;;;1.58;0.73;;;4.30;85.60;;;;;;5051741;28;19904;-67
2021/03/03 08:26:05;;;;;;;1.40;0.73;;;4.20;85.30;;;;;;5052867;28;20399;-73
2021/03/03 08:28:37;;;;;;;3.95;0.60;;;4.20;85.30;;;;;;5053111;28;20485;-69
2021/03/03 08:31:09;;;;;;;2.15;0.50;;;4.20;85.50;;;;;;5052004;28;20069;-67
2021/03/03 08:33:45;;;;;;;0.77;0.63;;;4.30;85.60;;;;;;5053284;28;20108;-68
2021/03/03 08:36:32;;;;;;;2.78;0.57;;;4.30;84.10;;;;;;5053868;28;20451;-72
2021/03/03 08:38:58;;;;;;;1.38;0.75;;;4.30;83.20;;;;;;5054910;28;20033;-70
2021/03/03 08:41:30;;;;;;;1.90;0.80;;;4.20;82.50;;;;;;5052079;28;20096;-67
2021/03/03 08:44:16;;;;;;;1.60;0.80;;;4.20;81.10;;;;;;5051981;28;20052;-73
2021/03/03 08:46:42;;;;;;;1.60;0.82;;;4.20;80.90;;;;;;5053062;28;20033;-74
2021/03/03 08:49:07;;;;;;;1.20;0.70;;;4.20;81.00;;;;;;5052746;28;20040;-70
2021/03/03 08:51:39;;;;;;;2.95;0.95;;;4.20;81.80;;;;;;5053169;28;20457;-70
2021/03/03 08:54:09;;;;;;;3.25;0.88;;;4.20;82.50;;;;;;5052719;28;20040;-74
2021/03/03 08:56:41;;;;;;;0.88;0.75;;;4.30;83.00;;;;;;5053152;28;20029;-71
2021/03/03 08:59:07;;;;;;;2.13;0.80;;;4.30;83.30;;;;;;5050355;28;20055;-73
2021/03/03 09:02:01;;;;;;;1.05;0.60;;;4.40;83.80;;;;;;5052892;28;20025;-72
2021/03/03 09:04:33;;;;;;;0.90;0.68;;;4.30;83.40;;;;;;5052798;28;20028;-72
2021/03/03 09:07:07;;;;;;;1.55;0.70;;;4.30;83.30;;;;;;5052779;28;20020;-73
2021/03/03 09:09:41;;;;;;;4.72;0.95;;;4.30;83.00;;;;;;5052504;28;20036;-73
2021/03/03 09:12:10;;;;;;;1.60;0.70;;;4.30;82.20;;;;;;5052758;28;20017;-72
2021/03/03 09:14:37;;;;;;;0.90;0.65;;;4.30;81.90;;;;;;5052613;28;20045;-71
2021/03/03 09:17:05;;;;;;;1.80;0.82;;;4.30;80.10;;;;;;5052896;28;20044;-71
2021/03/03 09:19:34;;;;;;;3.92;1.00;;;4.30;79.40;;;;;;5052163;28;20477;-73
2021/03/03 09:22:01;;;;;;;3.40;0.85;;;4.30;77.60;;;;;;5052744;28;20036;-72
2021/03/03 09:24:29;;;;;;;1.48;0.85;;;4.30;76.90;;;;;;5052604;28;20025;-72
2021/03/03 09:27:08;;;;;;;2.60;0.98;;;4.20;74.90;;;;;;5052241;28;20032;-72
2021/03/03 09:29:37;;;;;;;2.58;0.85;;;4.20;74.00;;;;;;5052436;28;20178;-69
2021/03/03 09:32:11;;;;;;;2.13;1.10;;;4.20;73.40;;;;;;5052524;28;20025;-69
2021/03/03 09:34:49;;;;;;;1.00;0.68;;;4.20;71.70;;;;;;5052268;28;20025;-70
2021/03/03 09:37:16;;;;;;;2.53;1.05;;;4.20;72.00;;;;;;5052500;28;20086;-73
2021/03/03 09:39:42;;;;;;;1.95;0.80;;;4.20;71.80;;;;;;5052035;28;20017;-72
2021/03/03 09:42:10;;;;;;;5.38;1.50;;;4.30;71.90;;;;;;5052272;28;20067;-72
2021/03/03 09:44:57;;;;;;;1.10;0.70;;;4.30;71.40;;;;;;5052087;28;20025;-72
2021/03/03 09:47:26;;;;;;;1.30;0.90;;;4.30;71.40;;;;;;5051993;28;20025;-73
2021/03/03 09:49:53;;;;;;;3.23;1.10;;;4.30;70.70;;;;;;5053581;28;20044;-72
2021/03/03 09:52:19;;;;;;;2.78;0.80;;;4.30;70.50;;;;;;5052083;28;20262;-73
2021/03/03 09:54:45;;;;;;;2.35;1.02;;;4.20;70.10;;;;;;5050086;28;20025;-73
2021/03/03 09:57:12;;;;;;;2.70;0.80;;;4.20;69.80;;;;;;5051907;28;20025;-73
2021/03/03 09:59:42;;;;;;;1.60;0.75;;;4.40;70.80;;;;;;5051328;28;20526;-73
2021/03/03 10:02:10;;;;;;;3.23;1.00;;;4.30;69.60;;;;;;5051480;28;20037;-73
2021/03/03 10:04:38;;;;;;;5.00;0.80;;;4.20;69.10;;;;;;5051810;28;20117;-72
2021/03/03 10:07:12;;;;;;;2.70;0.82;;;4.20;69.00;;;;;;5051780;28;20037;-72
2021/03/03 10:09:39;;;;;;;2.70;1.00;;;4.10;68.60;;;;;;5051645;28;20053;-73
2021/03/03 10:12:07;;;;;;;2.30;0.80;;;4.20;69.30;;;;;;5051937;28;20027;-74
2021/03/03 10:14:33;;;;;;;1.85;0.80;;;4.10;69.10;;;;;;5051424;28;20045;-74
2021/03/03 10:17:03;;;;;;;1.85;0.80;;;4.20;69.30;;;;;;5056199;28;20565;-74
2021/03/03 10:19:28;;;;;;;2.38;0.95;;;4.20;69.40;;;;;;5053045;28;20028;-76
2021/03/03 10:21:55;;;;;;;2.65;0.90;;;4.20;69.40;;;;;;5055731;28;20495;-76
2021/03/03 10:24:22;;;;;;;2.42;0.90;;;4.20;69.00;;;;;;5055928;28;20365;-70
2021/03/03 10:26:51;;;;;;;1.75;0.73;;;4.20;68.40;;;;;;5055648;28;20025;-70
2021/03/03 10:29:37;;;;;;;2.17;0.63;;;4.20;66.60;;;;;;5055815;28;20455;-69
2021/03/03 10:32:10;;;;;;;1.77;0.80;;;4.10;66.90;;;;;;5055291;28;20025;-69
2021/03/03 10:34:37;;;;;;;1.63;0.70;;;4.10;67.00;;;;;;5056069;28;20116;-70
2021/03/03 10:37:03;;;;;;;2.35;0.60;;;4.10;67.70;;;;;;5054113;28;20099;-70
2021/03/03 10:39:30;;;;;;;1.80;0.90;;;4.10;67.20;;;;;;5055677;28;20031;-72
2021/03/03 10:42:06;;;;;;;3.88;0.80;;;4.10;66.40;;;;;;5055625;28;20029;-72
2021/03/03 10:44:38;;;;;;;3.85;0.98;;;4.20;66.30;;;;;;5055636;28;20021;-70
2021/03/03 10:47:05;;;;;;;1.98;0.85;;;4.20;67.00;;;;;;5055017;28;20025;-69
2021/03/03 10:49:31;;;;;;;2.63;1.10;;;4.20;67.30;;;;;;5055506;28;20037;-69
2021/03/03 10:51:57;;;;;;;2.28;0.90;;;4.30;67.30;;;;;;5055135;28;20466;-67
2021/03/03 10:54:31;;;;;;;1.50;0.70;;;4.30;65.80;;;;;;5055071;28;20064;-67
2021/03/03 10:57:04;;;;;;;1.85;0.60;;;4.30;66.30;;;;;;5054904;28;20025;-67
2021/03/03 10:59:31;;;;;;;0.70;0.70;;;4.30;64.80;;;;;;5055274;28;20395;-67
2021/03/03 11:01:59;;;;;;;2.58;0.70;;;4.20;64.10;;;;;;5054934;28;20028;-67
2021/03/03 11:04:42;;;;;;;2.58;0.70;;;4.20;63.60;;;;;;5055277;28;20068;-67
2021/03/03 11:07:08;;;;;;;1.50;0.73;;;4.20;64.70;;;;;;5054887;28;20110;-68
2021/03/03 11:09:34;;;;;;;1.67;0.75;;;4.20;63.50;;;;;;5055105;28;20041;-67
2021/03/03 11:12:01;;;;;;;1.33;0.80;;;4.20;61.60;;;;;;5054902;28;20029;-67
2021/03/03 11:14:28;;;;;;;1.20;0.55;;;4.20;62.40;;;;;;5054331;28;20132;-67
2021/03/03 11:16:58;;;;;;;0.95;0.70;;;4.30;63.50;;;;;;5054752;28;20118;-67
2021/03/03 11:19:25;;;;;;;1.30;0.70;;;4.30;59.30;;;;;;5054696;28;20026;-67
2021/03/03 11:21:52;;;;;;;1.13;0.70;;;4.30;59.30;;;;;;5054634;28;20063;-67
2021/03/03 11:24:21;;;;;;;1.67;0.70;;;4.20;60.40;;;;;;5054776;28;20029;-67
2021/03/03 11:26:48;;;;;;;1.37;0.70;;;4.20;60.40;;;;;;5054835;28;20458;-67
2021/03/03 11:29:14;;;;;;;2.05;0.73;;;4.10;59.10;;;;;;5053670;28;20091;-68
2021/03/03 11:31:42;;;;;;;1.40;0.80;;;4.10;60.30;;;;;;5053664;28;20017;-69
2021/03/03 11:34:08;;;;;;;1.90;0.80;;;4.10;60.10;;;;;;5054806;28;20393;-69
2021/03/03 11:36:35;;;;;;;3.03;1.00;;;4.10;60.50;;;;;;5054474;28;20103;-73
2021/03/03 11:39:00;;;;;;;1.75;0.63;;;4.00;60.10;;;;;;5053826;28;20029;-69
2021/03/03 11:41:27;;;;;;;1.73;0.75;;;4.00;60.70;;;;;;5054012;28;20538;-69
2021/03/03 11:43:52;;;;;;;1.40;0.80;;;4.00;61.40;;;;;;5053732;28;20570;-69
2021/03/03 11:46:18;;;;;;;1.98;0.80;;;4.00;61.10;;;;;;5053025;28;20037;-69
2021/03/03 11:48:45;;;;;;;18.35;0.93;;;4.00;61.10;;;;;;5050360;28;20468;-69
2021/03/03 11:51:11;;;;;;;0.70;0.70;;;4.00;61.50;;;;;;5053548;28;20025;-69
2021/03/03 11:53:36;;;;;;;3.75;0.90;;;4.00;61.70;;;;;;5054180;28;20103;-69
2021/03/03 11:56:02;;;;;;;1.75;0.80;;;4.10;62.40;;;;;;5053827;28;20445;-69
2021/03/03 11:58:28;;;;;;;1.45;0.68;;;4.00;61.80;;;;;;5054058;28;20119;-70
2021/03/03 12:00:54;;;;;;;2.35;1.00;;;4.00;62.40;;;;;;5053814;28;20096;-69
2021/03/03 12:03:20;;;;;;;1.92;1.00;;;3.90;61.90;;;;;;5054347;28;20043;-69
2021/03/03 12:05:45;;;;;;;1.00;0.75;;;3.90;61.60;;;;;;5054045;28;20017;-68
2021/03/03 12:08:11;;;;;;;1.02;0.60;;;3.90;61.70;;;;;;5053986;28;20033;-69
2021/03/03 12:10:38;;;;;;;1.13;0.80;;;4.00;61.40;;;;;;5054327;28;20071;-71
2021/03/03 12:13:04;;;;;;;0.55;0.50;;;4.00;60.50;;;;;;5053826;28;20112;-72
2021/03/03 12:15:30;;;;;;;1.77;0.70;;;4.00;59.30;;;;;;5053717;28;20073;-73
2021/03/03 12:17:56;;;;;;;1.73;0.80;;;4.00;60.60;;;;;;5053803;28;20059;-73
2021/03/03 12:20:23;;;;;;;0.80;0.70;;;4.10;62.20;;;;;;5054044;28;20544;-73
2021/03/03 12:22:49;;;;;;;3.83;0.70;;;4.10;61.70;;;;;;5053783;28;20025;-72
2021/03/03 12:25:15;;;;;;;3.42;0.80;;;4.00;61.50;;;;;;5053914;28;20521;-72
2021/03/03 12:27:41;;;;;;;2.25;0.75;;;4.00;61.00;;;;;;5053871;28;20396;-70
2021/03/03 12:30:08;;;;;;;1.30;0.80;;;3.90;59.90;;;;;;5053735;28;20021;-72
2021/03/03 12:32:33;;;;;;;1.30;0.68;;;3.90;60.20;;;;;;5053373;28;20124;-73
2021/03/03 12:34:59;;;;;;;2.15;0.93;;;3.80;60.20;;;;;;5053591;28;20524;-72
2021/03/03 12:37:26;;;;;;;2.50;0.68;;;3.80;59.70;;;;;;5053785;28;20415;-72
2021/03/03 12:39:52;;;;;;;3.10;0.70;;;3.70;59.50;;;;;;5053478;28;20028;-72
2021/03/03 12:42:18;;;;;;;1.90;0.95;;;3.70;59.40;;;;;;5053726;28;20017;-72
2021/03/03 12:44:44;;;;;;;7.88;2.45;;;3.70;59.30;;;;;;5050990;28;20031;-72
2021/03/03 12:47:10;;;;;;;1.27;0.70;;;3.70;59.60;;;;;;5053384;28;20025;-72
2021/03/03 12:49:36;;;;;;;1.70;0.80;;;3.70;59.90;;;;;;5053529;28;20113;-72
2021/03/03 12:52:03;;;;;;;1.60;0.70;;;3.70;58.90;;;;;;5053146;28;20440;-71
2021/03/03 12:54:28;;;;;;;2.58;0.85;;;3.70;59.20;;;;;;5053161;28;20060;-72
2021/03/03 12:56:54;;;;;;;2.60;0.90;;;3.60;59.30;;;;;;5053042;28;20045;-72
2021/03/03 12:59:20;;;;;;;4.38;0.90;;;3.60;59.60;;;;;;5053055;28;20043;-72
2021/03/03 13:01:46;;;;;;;2.63;0.80;;;3.60;59.60;;;;;;5052983;28;20044;-71
2021/03/03 13:04:11;;;;;;;2.53;0.80;;;3.60;59.60;;;;;;5052709;28;20013;-73
2021/03/03 13:06:37;;;;;;;1.95;0.77;;;3.70;60.20;;;;;;5052991;28;20087;-73
2021/03/03 13:09:04;;;;;;;2.03;0.73;;;3.70;60.00;;;;;;5052840;28;20033;-72
2021/03/03 13:11:30;;;;;;;2.42;0.80;;;4.20;63.90;;;;;;5052340;28;20021;-72
2021/03/03 13:13:55;;;;;;;1.20;0.75;;;4.00;59.90;;;;;;5050897;28;20048;-70
2021/03/03 13:16:21;;;;;;;2.25;0.80;;;3.90;59.70;;;;;;5048865;28;20021;-70
2021/03/03 13:18:49;;;;;;;2.53;0.90;;;3.80;59.70;;;;;;5052434;28;20021;-70
2021/03/03 13:21:16;;;;;;;1.92;0.80;;;3.70;59.70;;;;;;5052120;28;20389;-70
2021/03/03 13:23:43;;;;;;;3.35;0.75;;;3.60;60.00;;;;;;5052353;28;20058;-71
2021/03/03 13:26:09;;;;;;;3.10;1.05;;;3.60;60.00;;;;;;5051893;28;20112;-68
2021/03/03 13:28:35;;;;;;;1.80;0.90;;;3.60;59.90;;;;;;5052119;28;20120;-71
2021/03/03 13:31:01;;;;;;;2.70;1.00;;;3.60;60.50;;;;;;5052090;28;20100;-71
2021/03/03 13:33:27;;;;;;;2.58;1.00;;;3.60;60.30;;;;;;5052386;28;20029;-70
2021/03/03 13:35:53;;;;;;;1.48;0.68;;;3.60;60.80;;;;;;5052010;28;20021;-73
2021/03/03 13:38:19;;;;;;;2.08;0.70;;;5.10;81.30;;;;;;5051125;28;20384;-74
2021/03/03 13:40:45;;;;;;;3.63;0.80;;;5.00;60.80;;;;;;5051637;28;20029;-69
2021/03/03 13:43:11;;;;;;;3.42;1.10;;;4.50;59.30;;;;;;5048261;28;20028;-68
2021/03/03 13:45:38;;;;;;;3.75;0.85;;;4.10;60.00;;;;;;5050810;28;20516;-69
2021/03/03 13:48:04;;;;;;;2.50;1.00;;;3.90;60.50;;;;;;5051914;28;20090;-69
2021/03/03 13:50:30;;;;;;;2.13;1.00;;;3.80;61.00;;;;;;5051418;28;20536;-69
2021/03/03 13:52:56;;;;;;;6.15;1.00;;;3.80;60.70;;;;;;5051653;28;20040;-67
2021/03/03 13:55:22;;;;;;;4.95;0.80;;;3.70;61.00;;;;;;5051329;28;20025;-71
2021/03/03 13:57:48;;;;;;;7.38;0.77;;;3.70;61.40;;;;;;5047382;28;20087;-73
2021/03/03 14:00:14;;;;;;;3.20;0.73;;;3.60;60.90;;;;;;5051041;28;20067;-73
2021/03/03 14:02:41;;;;;;;6.13;1.48;;;3.60;61.10;;;;;;5051357;28;20017;-73
2021/03/03 14:05:07;;;;;;;3.40;0.80;;;3.60;61.90;;;;;;5050557;28;20384;-73
2021/03/03 14:07:33;;;;;;;2.67;0.98;;;3.60;61.80;;;;;;5051020;28;20078;-73
2021/03/03 14:09:59;;;;;;;2.72;0.85;;;3.60;62.00;;;;;;5051196;28;20025;-73
2021/03/03 14:12:25;;;;;;;3.60;0.80;;;3.60;61.90;;;;;;5051260;28;20039;-73
2021/03/03 14:14:50;;;;;;;4.07;0.90;;;3.50;62.00;;;;;;5048231;28;20048;-73
2021/03/03 14:17:16;;;;;;;2.08;0.80;;;3.50;62.40;;;;;;5050013;28;20564;-73
2021/03/03 14:19:45;;;;;;;3.17;0.93;;;3.50;62.50;;;;;;5050928;28;20116;-73
2021/03/03 14:22:11;;;;;;;1.85;0.80;;;3.50;62.60;;;;;;5049531;28;20029;-73
2021/03/03 14:24:37;;;;;;;1.73;0.70;;;3.40;63.10;;;;;;5048992;28;20385;-73
2021/03/03 14:27:04;;;;;;;2.15;0.98;;;3.40;62.90;;;;;;5048424;28;20039;-73
2021/03/03 14:29:30;;;;;;;3.00;1.05;;;3.40;63.20;;;;;;5051379;28;20548;-73
2021/03/03 14:31:56;;;;;;;2.08;0.88;;;3.40;62.80;;;;;;5050777;28;20104;-73
2021/03/03 14:34:21;;;;;;;2.70;0.85;;;3.40;62.80;;;;;;5050809;28;20025;-72
2021/03/03 14:36:48;;;;;;;4.63;0.75;;;3.40;63.40;;;;;;5045634;28;20477;-72
2021/03/03 14:39:14;;;;;;;1.77;0.90;;;3.30;63.70;;;;;;5050987;28;20025;-72
2021/03/03 14:41:40;;;;;;;1.70;0.80;;;3.30;63.30;;;;;;5051547;28;20035;-72
2021/03/03 14:44:07;;;;;;;2.50;0.82;;;3.30;63.60;;;;;;5048702;28;20013;-72
2021/03/03 14:46:33;;;;;;;3.08;0.70;;;3.40;64.20;;;;;;5051298;28;20033;-72
2021/03/03 14:49:00;;;;;;;0.82;0.70;;;3.40;64.10;;;;;;5051069;28;20048;-72
2021/03/03 14:51:27;;;;;;;1.13;0.60;;;3.30;64.40;;;;;;5048088;28;20014;-72
2021/03/03 14:53:53;;;;;;;1.23;0.60;;;3.30;64.50;;;;;;5050644;28;20036;-72
2021/03/03 14:56:18;;;;;;;3.75;0.73;;;3.40;64.30;;;;;;5049482;28;20104;-72
2021/03/03 14:58:44;;;;;;;1.10;0.73;;;3.40;64.50;;;;;;5050937;28;20052;-72
2021/03/03 15:01:10;;;;;;;2.70;0.70;;;3.30;64.60;;;;;;5051037;28;20378;-72
2021/03/03 15:03:36;;;;;;;1.67;0.80;;;3.30;65.80;;;;;;5050796;28;20017;-70
2021/03/03 15:06:02;;;;;;;0.85;0.57;;;3.30;64.70;;;;;;5050612;28;20024;-72
2021/03/03 15:08:28;;;;;;;0.50;0.50;;;3.20;65.60;;;;;;5053923;28;20033;-72
2021/03/03 15:10:55;;;;;;;1.42;0.52;;;3.20;65.60;;;;;;5054703;28;20032;-72
2021/03/03 15:13:21;;;;;;;0.93;0.60;;;3.10;65.90;;;;;;5054947;28;20032;-73
2021/03/03 15:15:47;;;;;;;2.60;0.80;;;3.00;66.50;;;;;;5054282;28;20049;-72
2021/03/03 15:18:13;;;;;;;2.17;0.60;;;3.00;67.50;;;;;;5054572;28;20028;-71
2021/03/03 15:20:39;;;;;;;1.05;0.70;;;3.00;67.90;;;;;;5054319;28;20075;-71
2021/03/03 15:23:05;;;;;;;0.85;0.50;;;2.90;68.00;;;;;;5053790;28;20501;-71
2021/03/03 15:25:31;;;;;;;1.20;0.63;;;2.90;68.60;;;;;;5054225;28;20104;-71
2021/03/03 15:27:57;;;;;;;0.85;0.60;;;2.80;68.40;;;;;;5054050;28;20037;-71
2021/03/03 15:30:23;;;;;;;1.25;0.52;;;2.80;68.70;;;;;;5053839;28;20112;-71
2021/03/03 15:32:49;;;;;;;1.42;0.60;;;2.80;68.60;;;;;;5054289;28;20511;-71
2021/03/03 15:35:15;;;;;;;2.58;0.45;;;2.70;68.70;;;;;;5054226;28;20024;-72
2021/03/03 15:37:41;;;;;;;1.50;0.70;;;2.70;68.90;;;;;;5054038;28;20604;-71
2021/03/03 15:40:07;;;;;;;0.65;0.50;;;2.70;69.20;;;;;;5053788;28;20025;-70
2021/03/03 15:42:32;;;;;;;2.92;0.90;;;2.70;69.70;;;;;;5053637;28;20519;-72
2021/03/03 15:44:59;;;;;;;0.95;0.50;;;2.80;70.40;;;;;;5053969;28;20032;-71
2021/03/03 15:47:25;;;;;;;2.95;0.50;;;2.70;70.40;;;;;;5052946;28;20045;-72
2021/03/03 15:49:50;;;;;;;0.75;0.43;;;2.60;69.80;;;;;;5050970;28;20036;-72
2021/03/03 15:52:16;;;;;;;0.65;0.50;;;2.60;70.10;;;;;;5052992;28;20017;-71
2021/03/03 15:54:42;;;;;;;0.70;0.68;;;2.50;70.30;;;;;;5053401;28;20061;-72
2021/03/03 15:57:08;;;;;;;1.13;0.40;;;2.50;70.60;;;;;;5053746;28;20036;-71
2021/03/03 15:59:35;;;;;;;0.80;0.60;;;2.50;70.60;;;;;;5053640;28;20036;-72
2021/03/03 16:02:02;;;;;;;1.27;0.70;;;2.50;70.50;;;;;;5053736;28;20074;-71
2021/03/03 16:04:28;;;;;;;0.50;0.50;;;2.50;70.70;;;;;;5051219;28;20024;-72
2021/03/03 16:06:54;;;;;;;1.25;0.50;;;2.50;70.90;;;;;;5052257;28;20541;-71
2021/03/03 16:09:20;;;;;;;0.57;0.57;;;2.50;71.00;;;;;;5052370;28;20484;-72
2021/03/03 16:11:45;;;;;;;0.60;0.60;;;2.50;70.90;;;;;;5054087;28;20025;-72
2021/03/03 16:14:12;;;;;;;1.15;0.60;;;2.50;71.20;;;;;;5053816;28;20101;-72
2021/03/03 16:16:37;;;;;;;1.58;0.70;;;2.60;70.90;;;;;;5054092;28;20024;-73
2021/03/03 16:19:03;;;;;;;2.03;0.65;;;2.60;71.10;;;;;;5053526;28;20142;-73
2021/03/03 16:21:29;;;;;;;3.40;0.50;;;2.60;71.20;;;;;;5053849;28;20096;-72
2021/03/03 16:23:55;;;;;;;3.03;0.50;;;2.60;71.60;;;;;;5053819;28;20040;-73
2021/03/03 16:26:22;;;;;;;0.60;0.50;;;2.60;71.60;;;;;;5053971;28;20025;-72
2021/03/03 16:28:47;;;;;;;0.47;0.45;;;2.60;71.80;;;;;;5053665;28;20029;-67
2021/03/03 16:31:13;;;;;;;0.80;0.50;;;2.60;71.80;;;;;;5053442;28;20025;-67
2021/03/03 16:33:39;;;;;;;2.95;0.43;;;2.50;72.20;;;;;;5053619;28;20032;-67
2021/03/03 16:36:05;;;;;;;1.05;0.60;;;2.50;73.10;;;;;;5053368;28;20096;-67
2021/03/03 16:38:31;;;;;;;0.95;0.70;;;2.50;73.60;;;;;;5054416;28;20021;-66
2021/03/03 16:40:58;;;;;;;6.68;0.77;;;2.50;78.90;;;;;;5053723;28;20096;-68
2021/03/03 16:43:24;;;;;;;0.50;0.50;;;2.30;86.60;;;;;;5053409;28;20542;-69
2021/03/03 16:45:50;;;;;;;0.50;0.43;;;2.10;92.40;;;;;;5053442;28;20406;-68
2021/03/03 16:48:16;;;;;;;0.50;0.50;;;2.00;94.40;;;;;;5052867;28;20033;-68
2021/03/03 16:50:42;;;;;;;6.72;0.63;;;2.00;96.30;;;;;;5053049;28;20044;-68
2021/03/03 16:53:12;;;;;;;0.50;0.50;;;2.50;99.90;;;;;;5053362;28;20067;-68
2021/03/03 16:55:38;;;;;;;0.63;0.50;;;3.70;98.70;;;;;;5053269;28;20044;-67
2021/03/03 16:58:04;;;;;;;0.40;0.40;;;3.40;93.80;;;;;;5053070;28;20025;-67
2021/03/03 17:00:30;;;;;;;1.40;0.50;;;3.00;93.70;;;;;;5053300;28;20025;-67
2021/03/03 17:02:55;;;;;;;0.50;0.50;;;2.60;95.20;;;;;;5052920;28;20388;-66
2021/03/03 17:05:21;;;;;;;1.00;0.50;;;2.40;96.50;;;;;;5053262;28;20021;-66
2021/03/03 17:07:47;;;;;;;2.58;0.68;;;2.30;97.40;;;;;;5052881;28;20037;-66
2021/03/03 17:10:13;;;;;;;1.23;0.45;;;2.10;97.60;;;;;;5052782;28;20099;-66
2021/03/03 17:12:40;;;;;;;0.45;0.45;;;2.10;97.10;;;;;;5052816;28;20120;-66
2021/03/03 17:15:10;;;;;;;1.02;0.45;;;2.00;97.50;;;;;;5052611;28;20081;-66